Time;durP1;ratioP1;P1;durP2;ratioP2;P2;SDS_P1;SDS_P2;PMS_P1;PMS_P2;Temp;Humidity;BMP_temperature;BMP_pressure;BME280_temperature;BME280_humidity;BME280_pressure;Samples;Min_cycle;Max_cycle;Signal;HPM_P1;HPM_P2
2022/09/05 00:01:04;;;;;;;5.28;2.63;;;19.50;94.20;;;;;;4942434;29;20054;-84
2022/09/05 00:03:56;;;;;;;7.78;2.92;;;19.40;94.10;;;;;;4943340;29;20079;-84
2022/09/05 00:06:26;;;;;;;5.90;2.92;;;19.40;94.20;;;;;;4927462;29;20054;-84
2022/09/05 00:08:54;;;;;;;5.15;3.10;;;19.30;94.10;;;;;;4927928;29;20047;-83
2022/09/05 00:11:40;;;;;;;6.68;2.53;;;19.30;94.10;;;;;;4946385;29;20047;-84
2022/09/05 00:14:49;;;;;;;5.60;3.03;;;19.30;94.30;;;;;;4936770;29;20130;-85
2022/09/05 00:20:57;;;;;;;7.22;3.22;;;19.20;94.40;;;;;;4947075;29;20050;-84
2022/09/05 00:23:53;;;;;;;5.70;3.20;;;19.30;94.70;;;;;;4941547;29;20186;-84
2022/09/05 00:26:40;;;;;;;6.82;3.25;;;19.10;94.70;;;;;;4930064;29;20078;-84
2022/09/05 00:29:55;;;;;;;6.75;3.47;;;19.10;94.60;;;;;;4946380;29;20051;-84
2022/09/05 00:32:25;;;;;;;7.55;3.47;;;19.10;94.90;;;;;;4910902;29;20050;-85
2022/09/05 00:35:01;;;;;;;7.22;3.10;;;19.00;94.70;;;;;;4945152;29;20047;-84
2022/09/05 00:37:55;;;;;;;5.32;3.20;;;19.00;94.70;;;;;;4929363;29;20130;-84
2022/09/05 00:41:00;;;;;;;5.07;3.20;;;18.90;94.80;;;;;;4939821;29;20620;-84
2022/09/05 00:43:49;;;;;;;7.30;3.72;;;18.90;94.90;;;;;;4948613;29;20054;-84
2022/09/05 00:47:00;;;;;;;5.95;3.47;;;18.90;94.90;;;;;;4947222;29;20071;-84
2022/09/05 00:50:00;;;;;;;8.82;3.70;;;18.80;95.00;;;;;;4925973;29;20047;-84
2022/09/05 00:52:38;;;;;;;5.10;3.17;;;18.80;95.00;;;;;;4912699;29;20096;-84
2022/09/05 00:55:42;;;;;;;6.20;3.67;;;18.80;95.00;;;;;;4930452;29;20039;-84
2022/09/05 00:58:41;;;;;;;6.70;3.70;;;18.90;95.10;;;;;;4929703;29;20048;-84
2022/09/05 01:01:59;;;;;;;6.18;3.67;;;18.70;95.20;;;;;;4914356;29;20130;-85
2022/09/05 01:04:56;;;;;;;5.95;3.47;;;18.70;95.10;;;;;;4946695;29;20126;-84
2022/09/05 01:07:22;;;;;;;6.35;3.28;;;18.70;95.30;;;;;;4938852;29;20138;-84
2022/09/05 01:13:48;;;;;;;9.43;4.25;;;18.60;95.30;;;;;;4947285;29;20035;-84
2022/09/05 01:16:31;;;;;;;7.80;3.70;;;18.60;95.30;;;;;;4940954;29;20044;-84
2022/09/05 01:19:09;;;;;;;7.38;4.15;;;18.60;95.40;;;;;;4944873;29;20206;-85
2022/09/05 01:22:20;;;;;;;6.60;4.28;;;18.50;95.40;;;;;;4937932;29;20138;-85
2022/09/05 01:25:10;;;;;;;6.15;3.70;;;18.50;95.60;;;;;;4931401;29;20083;-84
2022/09/05 01:28:14;;;;;;;7.13;4.20;;;18.40;95.70;;;;;;4928898;29;20039;-85
2022/09/05 01:30:49;;;;;;;6.43;3.73;;;18.40;95.90;;;;;;4924436;29;20455;-84
2022/09/05 01:36:35;;;;;;;7.72;4.05;;;18.30;96.00;;;;;;4932746;29;20079;-84
2022/09/05 01:39:38;;;;;;;9.05;4.00;;;18.30;95.90;;;;;;4926508;29;20127;-84
2022/09/05 01:45:59;;;;;;;8.10;4.10;;;18.30;96.30;;;;;;4922676;29;20639;-84
2022/09/05 01:49:01;;;;;;;12.88;4.60;;;18.20;96.40;;;;;;4913181;29;20087;-84
2022/09/05 01:52:06;;;;;;;5.47;3.65;;;18.20;96.40;;;;;;4912705;29;20111;-84
2022/09/05 01:54:39;;;;;;;6.25;4.20;;;18.10;96.50;;;;;;4931650;29;20309;-84
2022/09/05 01:57:38;;;;;;;5.43;4.38;;;18.00;96.60;;;;;;4915924;29;20059;-85
2022/09/05 02:00:43;;;;;;;7.90;4.35;;;18.00;96.60;;;;;;4929067;29;20044;-84
2022/09/05 02:03:36;;;;;;;7.72;4.45;;;17.90;96.60;;;;;;4912253;29;20143;-84
2022/09/05 02:06:46;;;;;;;8.73;4.20;;;17.90;96.70;;;;;;4914110;29;20051;-84
2022/09/05 02:09:11;;;;;;;8.60;4.75;;;17.90;96.90;;;;;;4927099;29;20130;-84
2022/09/05 02:12:00;;;;;;;7.43;4.55;;;17.90;96.80;;;;;;4927099;29;20052;-84
2022/09/05 02:14:40;;;;;;;6.85;5.18;;;17.70;96.90;;;;;;4930229;29;20055;-85
2022/09/05 02:17:45;;;;;;;7.72;5.18;;;17.80;97.00;;;;;;4931708;29;20175;-84
2022/09/05 02:20:31;;;;;;;8.32;4.63;;;17.70;97.20;;;;;;4919863;29;20151;-85
2022/09/05 02:23:28;;;;;;;8.63;4.70;;;17.70;97.20;;;;;;4914364;29;20148;-84
2022/09/05 02:26:22;;;;;;;7.55;5.03;;;17.70;97.30;;;;;;4926306;29;20044;-85
2022/09/05 02:29:00;;;;;;;6.80;5.07;;;17.60;97.50;;;;;;4897337;29;20052;-84
2022/09/05 02:31:46;;;;;;;8.48;4.97;;;17.60;97.50;;;;;;4914233;29;20083;-84
2022/09/05 02:38:02;;;;;;;9.35;5.72;;;17.50;97.70;;;;;;4931698;29;20560;-84
2022/09/05 02:40:54;;;;;;;9.07;5.40;;;17.50;97.70;;;;;;4915300;29;20534;-85
2022/09/05 02:43:55;;;;;;;8.25;5.35;;;17.40;97.90;;;;;;4890888;29;20052;-85
2022/09/05 02:47:28;;;;;;;7.18;4.88;;;17.40;98.00;;;;;;4923409;29;20048;-85
2022/09/05 02:50:20;;;;;;;8.15;5.63;;;17.40;98.30;;;;;;4930080;29;20079;-85
2022/09/05 02:52:47;;;;;;;7.78;5.20;;;17.30;98.20;;;;;;4910308;29;20050;-85
2022/09/05 02:55:38;;;;;;;7.32;5.15;;;17.30;98.20;;;;;;4917698;29;20047;-85
2022/09/05 02:58:35;;;;;;;8.85;5.93;;;17.20;98.40;;;;;;4930036;29;20388;-85
2022/09/05 03:01:33;;;;;;;8.75;5.68;;;17.20;98.40;;;;;;4928257;29;20043;-85
2022/09/05 03:04:30;;;;;;;7.55;5.68;;;17.20;98.60;;;;;;4906390;29;20052;-85
2022/09/05 03:07:18;;;;;;;8.60;5.93;;;16.40;98.40;;;;;;4914115;29;20074;-84
2022/09/05 03:10:07;;;;;;;9.45;6.13;;;17.10;98.60;;;;;;4912464;29;20143;-85
2022/09/05 03:12:44;;;;;;;7.57;5.45;;;17.10;99.00;;;;;;4981695;23;20050;-84
2022/09/05 03:15:23;;;;;;;9.45;5.78;;;16.60;98.80;;;;;;4968798;28;20043;-85
2022/09/05 03:18:29;;;;;;;7.28;5.85;;;17.00;99.00;;;;;;4968367;28;20050;-85
2022/09/05 03:21:17;;;;;;;8.00;6.00;;;17.00;99.20;;;;;;4985154;28;20191;-85
2022/09/05 03:24:04;;;;;;;7.90;5.90;;;16.90;99.30;;;;;;4962154;28;20038;-85
2022/09/05 03:27:03;;;;;;;9.50;6.13;;;16.90;99.50;;;;;;4963715;28;20413;-85
2022/09/05 03:29:51;;;;;;;8.13;6.10;;;16.80;99.60;;;;;;4966694;28;20492;-85
2022/09/05 03:32:19;;;;;;;12.05;6.30;;;16.80;99.80;;;;;;4975329;28;20064;-85
2022/09/05 03:35:10;;;;;;;9.68;7.18;;;16.80;99.90;;;;;;4976212;28;20100;-85
2022/09/05 03:37:57;;;;;;;10.07;5.50;;;16.50;99.90;;;;;;4968575;28;20050;-85
2022/09/05 03:40:35;;;;;;;7.10;5.55;;;16.70;99.90;;;;;;4987029;28;20485;-85
2022/09/05 03:43:40;;;;;;;8.02;6.18;;;16.70;99.90;;;;;;4984314;28;20120;-85
2022/09/05 03:46:12;;;;;;;7.80;5.93;;;16.70;99.90;;;;;;4971793;28;20501;-85
2022/09/05 03:48:57;;;;;;;10.23;7.03;;;16.60;99.90;;;;;;4956466;28;20502;-85
2022/09/05 03:51:51;;;;;;;10.20;6.78;;;16.60;99.90;;;;;;4974903;28;20042;-85
2022/09/05 03:54:47;;;;;;;10.35;6.55;;;16.60;99.90;;;;;;4956269;28;20509;-85
2022/09/05 03:57:19;;;;;;;8.88;5.85;;;16.60;99.90;;;;;;4948923;28;20046;-85
2022/09/05 04:00:33;;;;;;;11.55;6.18;;;16.50;99.90;;;;;;4976405;28;20120;-85
2022/09/05 04:03:31;;;;;;;8.73;6.28;;;16.40;99.90;;;;;;4894963;29;20410;-85
2022/09/05 04:06:21;;;;;;;7.57;6.35;;;16.50;99.90;;;;;;4912096;29;20052;-85
2022/09/05 04:09:16;;;;;;;7.47;5.90;;;16.40;99.90;;;;;;4906096;29;20047;-85
2022/09/05 04:12:21;;;;;;;8.27;6.35;;;16.50;99.90;;;;;;4923015;29;20055;-85
2022/09/05 04:15:27;;;;;;;10.13;6.50;;;16.40;99.90;;;;;;4906024;29;20088;-85
2022/09/05 04:18:19;;;;;;;10.82;6.68;;;16.30;99.90;;;;;;4932099;29;20043;-85
2022/09/05 04:21:11;;;;;;;9.02;6.25;;;16.30;99.90;;;;;;4921589;29;20424;-85
2022/09/05 04:23:50;;;;;;;10.93;6.47;;;16.20;99.90;;;;;;4897423;29;20044;-85
2022/09/05 04:26:49;;;;;;;8.45;6.38;;;16.20;99.90;;;;;;4923214;29;20562;-86
2022/09/05 04:29:45;;;;;;;10.10;6.38;;;16.20;99.90;;;;;;4929323;29;20151;-85
2022/09/05 04:32:51;;;;;;;13.25;6.38;;;15.50;99.90;;;;;;4913299;29;20126;-85
2022/09/05 04:35:51;;;;;;;8.70;6.88;;;16.20;99.90;;;;;;4911034;29;20384;-85
2022/09/05 04:38:33;;;;;;;9.00;7.05;;;16.10;99.90;;;;;;4913921;28;20048;-85
2022/09/05 04:41:19;;;;;;;8.75;6.15;;;16.10;99.90;;;;;;4973945;28;20038;-85
2022/09/05 04:44:29;;;;;;;9.13;6.50;;;16.10;99.90;;;;;;4951223;28;20047;-85
2022/09/05 04:47:51;;;;;;;10.32;6.95;;;15.90;99.90;;;;;;4975678;28;20398;-85
2022/09/05 04:50:27;;;;;;;9.27;6.93;;;16.00;99.90;;;;;;4940641;29;20147;-85
2022/09/05 04:53:25;;;;;;;8.45;6.90;;;16.00;99.90;;;;;;4943568;28;20036;-85
2022/09/05 04:55:56;;;;;;;10.00;6.60;;;16.00;99.90;;;;;;4928126;29;20089;-85
2022/09/05 05:02:53;;;;;;;8.65;6.85;;;15.90;99.90;;;;;;4887291;29;20085;-84
2022/09/05 05:05:48;;;;;;;9.63;7.28;;;15.90;99.90;;;;;;4889271;29;20111;-84
2022/09/05 05:08:36;;;;;;;9.45;6.72;;;15.90;99.90;;;;;;4871967;29;20060;-85
2022/09/05 05:11:24;;;;;;;8.30;7.05;;;15.90;99.90;;;;;;4891647;29;20056;-85
2022/09/05 05:14:22;;;;;;;8.43;6.95;;;15.90;99.90;;;;;;4863568;29;20064;-85
2022/09/05 05:17:35;;;;;;;8.15;6.85;;;15.90;99.90;;;;;;4889704;29;20060;-85
2022/09/05 05:20:46;;;;;;;8.23;7.05;;;15.90;99.90;;;;;;4878783;29;20051;-85
2022/09/05 05:23:19;;;;;;;7.90;6.70;;;15.90;99.90;;;;;;4882115;29;20139;-85
2022/09/05 05:26:02;;;;;;;9.68;7.10;;;15.90;99.90;;;;;;4911790;29;20142;-85
2022/09/05 05:29:08;;;;;;;9.13;6.93;;;16.40;99.90;;;;;;4908943;29;20390;-85
2022/09/05 05:31:52;;;;;;;;;;;15.90;99.90;;;;;;4897663;29;20048;-85
2022/09/05 05:34:35;;;;;;;9.23;7.95;;;15.90;99.90;;;;;;4898305;28;19923;-84
2022/09/05 05:37:18;;;;;;;8.77;7.13;;;15.90;99.90;;;;;;4991351;28;20046;-85
2022/09/05 05:40:25;;;;;;;10.15;7.50;;;15.90;99.90;;;;;;4991501;28;20046;-85
2022/09/05 05:43:57;;;;;;;9.02;7.20;;;15.90;99.90;;;;;;4976011;28;20054;-85
2022/09/05 05:47:15;;;;;;;12.32;7.40;;;16.40;99.90;;;;;;4988911;28;20046;-85
2022/09/05 05:49:59;;;;;;;10.23;7.40;;;15.90;99.90;;;;;;4991722;28;20043;-86
2022/09/05 05:52:38;;;;;;;;;;;15.90;99.90;;;;;;4994573;28;20046;-85
2022/09/05 05:55:12;;;;;;;12.50;8.57;;;15.90;99.90;;;;;;4983324;28;19932;-85
2022/09/05 05:58:07;;;;;;;;;;;16.00;99.90;;;;;;4970585;28;20081;-85
2022/09/05 06:00:56;;;;;;;9.55;7.45;;;15.90;99.90;;;;;;4953572;28;19965;-84
2022/09/05 06:03:37;;;;;;;8.98;7.32;;;15.90;99.90;;;;;;4968051;28;20127;-85
2022/09/05 06:06:49;;;;;;;10.57;7.45;;;15.90;99.90;;;;;;4988324;28;20034;-84
2022/09/05 06:09:36;;;;;;;10.38;8.18;;;16.00;99.90;;;;;;4971762;28;20065;-85
2022/09/05 06:12:10;;;;;;;12.75;8.88;;;16.00;99.90;;;;;;4977746;28;20058;-86
2022/09/05 06:15:11;;;;;;;12.57;7.72;;;16.00;99.90;;;;;;4966499;28;20043;-84
2022/09/05 06:18:16;;;;;;;14.70;8.65;;;16.30;99.90;;;;;;4969546;28;20446;-84
2022/09/05 06:21:19;;;;;;;13.25;7.90;;;16.00;99.90;;;;;;4993715;28;20112;-85
2022/09/05 06:24:11;;;;;;;10.90;7.53;;;16.10;99.90;;;;;;4988928;28;20096;-83
2022/09/05 06:26:55;;;;;;;10.65;7.32;;;16.10;99.90;;;;;;4990835;28;20082;-84
2022/09/05 06:29:45;;;;;;;12.63;8.48;;;16.20;99.90;;;;;;4983110;28;20136;-84
2022/09/05 06:32:32;;;;;;;11.63;7.63;;;16.20;99.90;;;;;;4975903;28;20046;-85
2022/09/05 06:35:15;;;;;;;9.05;7.75;;;16.20;99.90;;;;;;4993157;28;20387;-85
2022/09/05 06:38:15;;;;;;;11.40;8.40;;;16.40;99.90;;;;;;4986683;28;20486;-83
2022/09/05 06:41:00;;;;;;;9.77;7.97;;;16.30;99.90;;;;;;4984485;28;20054;-86
2022/09/05 06:44:03;;;;;;;9.43;6.75;;;16.40;99.90;;;;;;4979455;28;20505;-82
2022/09/05 06:46:32;;;;;;;12.15;8.80;;;16.50;99.90;;;;;;4992476;28;20509;-83
2022/09/05 06:49:16;;;;;;;9.57;8.15;;;16.50;99.90;;;;;;4965178;28;20046;-82
2022/09/05 06:51:44;;;;;;;14.40;8.52;;;16.60;99.90;;;;;;4973613;28;20054;-84
2022/09/05 06:54:28;;;;;;;11.65;8.15;;;16.70;99.90;;;;;;4975016;28;20050;-83
2022/09/05 06:57:20;;;;;;;13.30;8.00;;;16.70;99.90;;;;;;4978733;28;20133;-84
2022/09/05 06:59:59;;;;;;;12.73;7.90;;;16.80;99.90;;;;;;4990113;28;20050;-84
2022/09/05 07:02:36;;;;;;;13.07;7.88;;;16.90;99.90;;;;;;4987971;28;20414;-84
2022/09/05 07:05:14;;;;;;;10.32;7.70;;;16.90;99.90;;;;;;4963779;28;20046;-83
2022/09/05 07:07:51;;;;;;;16.23;8.80;;;17.00;99.90;;;;;;4969358;28;20092;-84
2022/09/05 07:10:44;;;;;;;13.95;7.45;;;17.10;99.90;;;;;;4965115;28;20437;-84
2022/09/05 07:13:38;;;;;;;14.30;9.23;;;17.10;99.90;;;;;;4979086;28;20042;-84
2022/09/05 07:16:17;;;;;;;12.27;8.13;;;17.10;99.90;;;;;;4899380;29;20116;-84
2022/09/05 07:18:58;;;;;;;13.88;8.07;;;17.20;99.90;;;;;;4876501;29;20178;-83
2022/09/05 07:21:38;;;;;;;13.40;8.65;;;17.20;99.90;;;;;;4891509;29;20068;-82
2022/09/05 07:24:11;;;;;;;13.63;7.75;;;17.30;99.90;;;;;;4893310;29;20056;-83
2022/09/05 07:26:46;;;;;;;12.82;8.57;;;17.30;99.90;;;;;;4908777;29;20060;-83
2022/09/05 07:29:18;;;;;;;10.65;8.13;;;17.50;99.90;;;;;;4910196;29;20166;-82
2022/09/05 07:31:49;;;;;;;13.15;7.10;;;17.40;99.90;;;;;;4910200;29;20451;-83
2022/09/05 07:34:42;;;;;;;9.48;7.38;;;17.40;99.90;;;;;;4892143;29;20455;-85
2022/09/05 07:37:21;;;;;;;10.30;8.25;;;17.50;99.90;;;;;;4905193;29;20051;-83
2022/09/05 07:39:59;;;;;;;11.05;8.15;;;17.60;99.90;;;;;;4891315;29;20603;-83
2022/09/05 07:42:35;;;;;;;9.68;7.53;;;17.70;99.90;;;;;;4895473;29;20056;-83
2022/09/05 07:45:25;;;;;;;12.90;7.45;;;17.70;99.90;;;;;;4902147;29;20052;-83
2022/09/05 07:47:57;;;;;;;12.90;7.68;;;17.90;99.90;;;;;;4904786;29;20055;-83
2022/09/05 07:50:24;;;;;;;10.45;7.30;;;17.90;99.90;;;;;;4909257;29;20123;-83
2022/09/05 07:52:54;;;;;;;11.85;7.88;;;18.00;99.90;;;;;;4904400;28;20196;-82
2022/09/05 07:55:34;;;;;;;15.20;7.47;;;18.10;99.90;;;;;;4976466;28;20155;-83
2022/09/05 07:58:05;;;;;;;17.58;7.20;;;18.20;99.90;;;;;;4969740;28;20042;-83
2022/09/05 08:00:31;;;;;;;16.73;7.68;;;18.30;99.90;;;;;;4969711;28;20517;-83
2022/09/05 08:02:59;;;;;;;16.42;7.57;;;18.40;99.90;;;;;;4973459;28;21154;-83
2022/09/05 08:05:36;;;;;;;14.35;7.70;;;18.50;99.90;;;;;;4967593;28;20069;-83
2022/09/05 08:08:08;;;;;;;19.55;7.25;;;18.60;99.90;;;;;;4994953;28;20133;-84
2022/09/05 08:10:51;;;;;;;16.25;7.05;;;18.70;99.90;;;;;;4983612;28;20138;-83
2022/09/05 08:13:42;;;;;;;12.75;7.57;;;18.80;99.90;;;;;;4984685;28;20046;-84
2022/09/05 08:16:12;;;;;;;13.52;7.50;;;18.90;99.90;;;;;;4990367;28;20054;-84
2022/09/05 08:18:48;;;;;;;8.65;6.20;;;19.10;99.90;;;;;;4969332;28;20048;-84
2022/09/05 08:21:40;;;;;;;14.80;7.43;;;19.30;99.90;;;;;;4960539;28;20057;-83
2022/09/05 08:24:08;;;;;;;10.27;6.32;;;19.40;99.90;;;;;;4972894;28;20046;-84
2022/09/05 08:26:59;;;;;;;12.73;5.90;;;19.50;99.90;;;;;;4955515;28;20053;-83
2022/09/05 08:29:37;;;;;;;13.93;6.47;;;19.70;99.90;;;;;;4965070;28;20051;-85
2022/09/05 08:32:13;;;;;;;14.77;5.75;;;19.90;99.90;;;;;;4977706;28;20424;-86
2022/09/05 08:34:50;;;;;;;19.83;6.72;;;20.00;99.90;;;;;;4956406;28;20113;-86
2022/09/05 08:37:20;;;;;;;11.75;6.18;;;20.20;99.90;;;;;;4970361;28;20446;-86
2022/09/05 08:39:50;;;;;;;13.30;7.07;;;20.30;99.90;;;;;;4971610;28;20129;-86
2022/09/05 08:42:33;;;;;;;14.45;6.47;;;20.50;99.90;;;;;;4992672;28;20045;-86
2022/09/05 08:45:20;;;;;;;14.20;5.70;;;20.60;99.90;;;;;;4967894;28;20054;-86
2022/09/05 08:48:10;;;;;;;11.05;6.35;;;20.70;99.90;;;;;;4986522;28;20080;-86
2022/09/05 08:51:07;;;;;;;13.77;6.57;;;20.80;99.90;;;;;;4987755;28;20050;-86
2022/09/05 08:54:06;;;;;;;13.93;6.38;;;20.90;99.90;;;;;;4992093;28;20168;-86
2022/09/05 08:57:04;;;;;;;12.75;6.57;;;21.00;99.90;;;;;;4987091;28;20398;-86
2022/09/05 09:00:02;;;;;;;8.32;6.40;;;21.10;99.90;;;;;;4986953;28;20434;-86
2022/09/05 09:02:37;;;;;;;7.75;5.57;;;21.20;99.90;;;;;;4968477;28;20494;-85
2022/09/05 09:05:27;;;;;;;9.35;5.50;;;21.30;99.90;;;;;;4988525;28;20049;-85
2022/09/05 09:08:18;;;;;;;6.75;5.43;;;21.40;99.90;;;;;;4976698;28;20061;-88
2022/09/05 09:10:58;;;;;;;10.95;5.22;;;21.60;99.90;;;;;;4974052;28;20081;-88
2022/09/05 09:13:36;;;;;;;9.20;5.22;;;21.70;99.90;;;;;;4980637;28;20133;-87
2022/09/05 09:16:07;;;;;;;10.95;5.50;;;21.90;99.70;;;;;;4970242;28;20104;-86
2022/09/05 09:18:56;;;;;;;12.70;5.80;;;22.00;99.70;;;;;;4988777;28;20062;-86
2022/09/05 09:21:37;;;;;;;13.90;5.28;;;22.20;99.00;;;;;;4940707;28;20058;-86
2022/09/05 09:24:12;;;;;;;9.98;6.47;;;22.40;99.00;;;;;;4972356;28;20038;-87
2022/09/05 09:26:47;;;;;;;18.52;6.13;;;22.50;98.70;;;;;;4983989;28;20054;-87
2022/09/05 09:29:16;;;;;;;14.82;5.72;;;22.70;98.40;;;;;;4985090;28;21058;-88
2022/09/05 09:32:00;;;;;;;15.00;6.30;;;22.90;98.30;;;;;;4974447;28;20097;-88
2022/09/05 09:34:26;;;;;;;16.77;6.20;;;23.00;97.70;;;;;;4992214;28;20099;-88
2022/09/05 09:37:22;;;;;;;12.60;5.55;;;23.20;97.40;;;;;;4990063;28;20042;-88
2022/09/05 09:40:12;;;;;;;8.88;5.25;;;23.40;96.50;;;;;;4967791;28;20057;-88
2022/09/05 09:42:52;;;;;;;11.52;5.20;;;23.50;96.30;;;;;;4983926;28;20047;-88
2022/09/05 09:45:48;;;;;;;9.70;5.93;;;23.70;96.10;;;;;;4989575;28;20565;-93
2022/09/05 09:48:35;;;;;;;18.75;5.32;;;23.80;95.70;;;;;;4970688;28;20517;-86
2022/09/05 09:51:21;;;;;;;11.02;4.32;;;24.10;96.10;;;;;;4986728;28;20085;-86
2022/09/05 09:54:05;;;;;;;7.63;3.65;;;24.10;95.00;;;;;;4971841;28;20077;-86
2022/09/05 09:56:43;;;;;;;7.00;4.10;;;24.30;95.50;;;;;;4986427;28;20045;-86
2022/09/05 09:59:42;;;;;;;4.97;2.90;;;24.50;95.30;;;;;;4977751;28;20309;-85
2022/09/05 10:02:14;;;;;;;6.07;2.90;;;24.70;94.20;;;;;;4986113;28;20529;-85
2022/09/05 10:05:27;;;;;;;10.35;2.75;;;24.90;94.50;;;;;;4982904;28;20101;-86
2022/09/05 10:07:58;;;;;;;7.82;3.53;;;25.00;93.30;;;;;;4981268;28;20077;-88
2022/09/05 10:11:02;;;;;;;11.95;3.70;;;25.10;94.00;;;;;;4988868;28;20060;-88
2022/09/05 10:13:46;;;;;;;5.65;3.42;;;25.30;93.50;;;;;;4992568;28;20562;-87
2022/09/05 10:16:46;;;;;;;4.97;3.15;;;25.60;93.30;;;;;;4981593;28;20057;-87
2022/09/05 10:19:45;;;;;;;8.45;3.08;;;25.70;93.60;;;;;;4981400;28;20046;-87
2022/09/05 10:22:41;;;;;;;6.28;3.40;;;25.90;92.70;;;;;;4968558;28;20057;-87
2022/09/05 10:25:30;;;;;;;9.10;3.30;;;26.10;92.20;;;;;;4992537;28;20104;-87
2022/09/05 10:28:25;;;;;;;7.45;2.85;;;26.20;92.60;;;;;;4989031;28;20042;-87
2022/09/05 10:31:12;;;;;;;5.20;2.97;;;26.40;92.50;;;;;;4964573;28;21084;-87
2022/09/05 10:33:50;;;;;;;5.93;2.38;;;26.60;91.50;;;;;;4992521;28;20077;-87
2022/09/05 10:36:25;;;;;;;5.13;2.50;;;26.70;91.90;;;;;;4982278;28;20141;-86
2022/09/05 10:39:16;;;;;;;5.63;2.20;;;26.80;91.10;;;;;;4981215;28;20509;-85
2022/09/05 10:41:52;;;;;;;5.10;2.75;;;26.90;90.90;;;;;;4976114;28;20049;-82
2022/09/05 10:44:44;;;;;;;6.80;2.53;;;27.00;91.10;;;;;;4967194;28;20049;-84
2022/09/05 10:47:48;;;;;;;5.65;2.53;;;27.10;90.70;;;;;;4963233;28;20054;-85
2022/09/05 10:50:27;;;;;;;4.32;2.33;;;27.20;90.20;;;;;;4978692;28;20055;-86
2022/09/05 10:53:23;;;;;;;6.50;1.90;;;27.30;90.10;;;;;;4986101;28;20052;-85
2022/09/05 10:56:01;;;;;;;5.18;2.22;;;27.30;90.00;;;;;;4984196;28;20085;-87
2022/09/05 10:58:32;;;;;;;4.85;2.40;;;27.50;90.00;;;;;;4991447;28;20108;-87
2022/09/05 11:01:04;;;;;;;4.78;2.35;;;27.50;90.00;;;;;;4989927;28;20046;-87
2022/09/05 11:03:53;;;;;;;8.32;2.55;;;27.60;90.00;;;;;;4996022;28;20593;-87
2022/09/05 11:06:44;;;;;;;4.60;2.40;;;27.80;88.70;;;;;;4980342;28;20051;-87
2022/09/05 11:09:22;;;;;;;7.90;2.53;;;27.90;89.20;;;;;;4967181;28;20114;-86
2022/09/05 11:12:18;;;;;;;6.72;2.60;;;28.00;89.70;;;;;;4961804;28;20533;-86
2022/09/05 11:15:14;;;;;;;6.80;2.70;;;28.10;88.60;;;;;;4975456;28;20505;-86
2022/09/05 11:17:46;;;;;;;4.55;2.55;;;28.30;87.90;;;;;;4942420;29;20412;-95
2022/09/05 11:20:39;;;;;;;4.15;2.20;;;28.40;88.40;;;;;;4933900;29;20052;-95
2022/09/05 11:23:35;;;;;;;6.50;3.03;;;28.50;86.70;;;;;;4932727;29;20043;-95
2022/09/05 11:26:06;;;;;;;5.85;2.20;;;28.70;86.80;;;;;;4923844;29;20055;-94
2022/09/05 11:28:39;;;;;;;6.28;2.42;;;28.80;86.80;;;;;;4933625;29;20099;-95
2022/09/05 11:31:13;;;;;;;10.37;2.60;;;29.00;86.90;;;;;;4928827;29;20055;-96
2022/09/05 11:33:48;;;;;;;6.07;2.58;;;28.90;86.30;;;;;;4927001;29;20376;-91
2022/09/05 11:36:23;;;;;;;3.85;2.33;;;28.90;85.90;;;;;;4938477;29;20047;-93
2022/09/05 11:38:59;;;;;;;5.10;2.20;;;29.00;85.70;;;;;;4939504;29;20403;-92
2022/09/05 11:41:52;;;;;;;4.80;2.45;;;29.10;86.00;;;;;;4929272;29;20171;-92
2022/09/05 11:44:21;;;;;;;10.40;2.67;;;29.30;84.80;;;;;;4925616;29;20039;-92
2022/09/05 11:46:53;;;;;;;3.65;2.40;;;29.40;85.30;;;;;;4936165;29;20215;-92
2022/09/05 11:49:19;;;;;;;4.35;2.45;;;29.50;85.30;;;;;;4918444;29;20514;-92
2022/09/05 11:52:05;;;;;;;7.15;2.55;;;29.70;85.00;;;;;;4941980;29;20047;-92
2022/09/05 11:55:25;;;;;;;6.95;2.65;;;29.70;83.40;;;;;;4945511;29;20075;-92
2022/09/05 11:58:19;;;;;;;7.03;2.38;;;29.70;83.70;;;;;;4883778;29;20060;-92
2022/09/05 12:00:57;;;;;;;6.53;2.33;;;29.70;82.50;;;;;;4881277;29;20066;-93
2022/09/05 12:03:40;;;;;;;4.90;2.47;;;29.70;83.40;;;;;;4899707;29;20124;-92
2022/09/05 12:06:30;;;;;;;5.45;2.67;;;29.70;81.90;;;;;;4900031;29;20064;-91
2022/09/05 12:09:13;;;;;;;7.00;2.10;;;29.70;82.80;;;;;;4900356;29;20049;-93
2022/09/05 12:11:41;;;;;;;9.93;3.00;;;29.70;83.60;;;;;;4902963;29;20115;-93
2022/09/05 12:14:44;;;;;;;5.30;2.20;;;29.70;83.60;;;;;;4904648;29;20571;-91
2022/09/05 12:17:22;;;;;;;4.90;2.20;;;29.60;82.70;;;;;;4897229;29;20049;-91
2022/09/05 12:20:02;;;;;;;6.35;2.28;;;29.70;83.00;;;;;;4896962;29;20087;-92
2022/09/05 12:22:44;;;;;;;6.35;2.25;;;29.70;82.60;;;;;;4884038;29;20094;-93
2022/09/05 12:25:26;;;;;;;6.22;2.33;;;29.70;81.10;;;;;;4898019;29;20068;-93
2022/09/05 12:27:56;;;;;;;7.65;2.40;;;29.60;81.60;;;;;;4897189;29;20044;-93
2022/09/05 12:30:32;;;;;;;6.72;2.42;;;29.40;82.60;;;;;;4884556;29;20040;-92
2022/09/05 12:33:12;;;;;;;5.32;2.25;;;29.30;82.60;;;;;;4933637;29;20064;-93
2022/09/05 12:35:47;;;;;;;9.02;2.60;;;29.30;82.70;;;;;;4924105;29;20044;-93
2022/09/05 12:38:29;;;;;;;4.90;2.33;;;29.20;83.20;;;;;;4931333;29;20468;-92
2022/09/05 12:41:25;;;;;;;3.65;2.13;;;29.10;82.60;;;;;;4945807;29;20060;-92
2022/09/05 12:44:00;;;;;;;9.05;2.35;;;29.10;83.60;;;;;;4928071;29;20047;-91
2022/09/05 12:46:44;;;;;;;4.78;1.88;;;29.20;82.70;;;;;;4921146;29;20107;-89
2022/09/05 12:49:35;;;;;;;6.50;2.20;;;29.40;82.00;;;;;;4946314;28;20044;-90
2022/09/05 12:52:07;;;;;;;2.97;2.13;;;29.60;81.70;;;;;;4911125;29;20047;-90
2022/09/05 12:54:49;;;;;;;3.80;2.00;;;29.90;81.10;;;;;;4937231;29;20048;-91
2022/09/05 12:57:27;;;;;;;3.20;1.83;;;30.00;80.80;;;;;;4941251;29;20075;-90
2022/09/05 12:59:57;;;;;;;5.15;2.33;;;30.20;80.50;;;;;;4914330;29;20111;-90
2022/09/05 13:02:30;;;;;;;7.43;2.25;;;30.30;80.80;;;;;;4925830;29;20048;-90
2022/09/05 13:05:03;;;;;;;2.15;1.58;;;30.50;80.10;;;;;;4927068;29;20436;-89
2022/09/05 13:07:46;;;;;;;8.25;2.15;;;30.70;80.40;;;;;;4931131;29;20067;-89
2022/09/05 13:10:23;;;;;;;8.45;2.00;;;30.90;80.00;;;;;;4908441;29;20048;-89
2022/09/05 13:12:54;;;;;;;6.85;2.17;;;31.00;78.30;;;;;;4930518;29;20050;-90
2022/09/05 13:15:25;;;;;;;4.80;1.98;;;31.00;78.50;;;;;;4913092;29;20601;-91
2022/09/05 13:17:58;;;;;;;3.38;1.70;;;31.10;78.80;;;;;;4916305;29;20091;-88
2022/09/05 13:20:33;;;;;;;3.65;1.77;;;31.10;76.90;;;;;;4907316;29;20061;-89
2022/09/05 13:23:31;;;;;;;5.07;1.65;;;30.90;76.50;;;;;;4933211;29;20099;-92
2022/09/05 13:26:10;;;;;;;4.90;1.80;;;30.80;75.30;;;;;;4903391;29;20060;-91
2022/09/05 13:28:54;;;;;;;2.47;1.60;;;30.80;75.30;;;;;;4912747;29;20048;-91
2022/09/05 13:31:41;;;;;;;3.97;1.80;;;30.80;76.10;;;;;;4930796;29;20100;-91
2022/09/05 13:34:18;;;;;;;3.35;1.80;;;30.90;77.00;;;;;;4916667;29;20096;-90
2022/09/05 13:36:49;;;;;;;3.40;1.80;;;31.10;76.70;;;;;;4943287;29;20431;-94
2022/09/05 13:39:21;;;;;;;4.28;1.63;;;31.20;76.70;;;;;;4944070;29;20058;-94
2022/09/05 13:41:58;;;;;;;4.97;1.83;;;31.40;77.80;;;;;;4950332;29;20563;-93
2022/09/05 13:44:25;;;;;;;3.70;1.85;;;31.60;76.30;;;;;;4929082;29;20110;-93
2022/09/05 13:47:04;;;;;;;5.30;1.70;;;31.70;76.20;;;;;;4935167;29;20048;-95
2022/09/05 13:49:39;;;;;;;4.60;1.65;;;31.80;75.40;;;;;;4911883;29;20080;-93
2022/09/05 13:52:24;;;;;;;3.25;1.40;;;31.90;75.50;;;;;;4919191;29;20062;-95
2022/09/05 13:55:10;;;;;;;3.83;1.75;;;32.00;74.50;;;;;;4920181;29;20115;-94
2022/09/05 13:57:45;;;;;;;3.55;1.40;;;31.90;74.60;;;;;;4916170;29;20074;-94
2022/09/05 14:00:16;;;;;;;3.80;1.88;;;31.70;74.40;;;;;;4929961;29;20048;-95
2022/09/05 14:03:19;;;;;;;7.07;1.70;;;31.70;75.10;;;;;;4931623;29;20048;-96
2022/09/05 14:06:10;;;;;;;5.25;1.70;;;31.70;75.00;;;;;;4912236;29;20056;-95
2022/09/05 14:09:03;;;;;;;3.38;1.40;;;31.70;74.90;;;;;;4910528;29;20095;-95
2022/09/05 14:11:54;;;;;;;4.63;1.42;;;31.60;74.60;;;;;;4912168;29;20060;-94
2022/09/05 14:14:41;;;;;;;3.65;1.70;;;31.50;73.40;;;;;;4916352;29;20113;-95
2022/09/05 14:17:36;;;;;;;4.90;1.73;;;31.30;73.30;;;;;;4918580;29;20060;-95
2022/09/05 14:22:59;;;;;;;4.35;1.58;;;31.00;74.20;;;;;;4935097;29;20044;-95
2022/09/05 14:25:26;;;;;;;12.63;2.03;;;30.90;73.80;;;;;;4920415;29;20124;-94
2022/09/05 14:27:53;;;;;;;3.60;1.60;;;30.90;74.40;;;;;;4946383;29;20036;-95
2022/09/05 14:30:39;;;;;;;3.05;1.55;;;30.90;74.70;;;;;;4948340;29;20044;-95
2022/09/05 14:33:36;;;;;;;3.53;1.48;;;30.80;73.90;;;;;;4938385;29;20039;-95
2022/09/05 14:36:10;;;;;;;4.15;1.77;;;30.70;74.30;;;;;;4939323;29;20048;-94
2022/09/05 14:39:05;;;;;;;6.10;1.60;;;30.70;74.40;;;;;;4951336;29;20086;-95
2022/09/05 14:42:01;;;;;;;2.90;1.70;;;30.60;74.40;;;;;;4932765;29;20044;-93
2022/09/05 14:44:41;;;;;;;19.60;2.25;;;30.60;75.20;;;;;;4948520;29;20048;-92
2022/09/05 14:47:44;;;;;;;4.53;1.70;;;30.60;75.90;;;;;;4933670;29;20054;-93